Time;durP1;ratioP1;P1;durP2;ratioP2;P2;SDS_P1;SDS_P2;PMS_P1;PMS_P2;Temp;Humidity;BMP_temperature;BMP_pressure;BME280_temperature;BME280_humidity;BME280_pressure;Samples;Min_cycle;Max_cycle;Signal;HPM_P1;HPM_P2
2021/05/14 00:00:47;;;;;;;1.50;1.07;;;13.20;98.20;;;;;;5005967;28;20494;-82
2021/05/14 00:03:13;;;;;;;1.50;1.00;;;13.20;98.20;;;;;;5021367;28;20487;-84
2021/05/14 00:05:40;;;;;;;1.50;1.03;;;13.10;98.20;;;;;;5006243;28;20982;-84
2021/05/14 00:08:07;;;;;;;1.50;1.10;;;13.10;98.20;;;;;;5015053;28;20492;-82
2021/05/14 00:10:36;;;;;;;1.53;1.10;;;13.10;98.20;;;;;;5006118;28;20499;-83
2021/05/14 00:13:03;;;;;;;1.50;1.10;;;13.00;98.20;;;;;;5017502;28;20480;-84
2021/05/14 00:15:30;;;;;;;1.50;1.10;;;13.00;98.20;;;;;;5008304;28;20460;-82
2021/05/14 00:17:56;;;;;;;1.50;1.00;;;13.00;98.20;;;;;;4994915;28;20504;-83
2021/05/14 00:20:23;;;;;;;1.50;1.00;;;13.00;98.20;;;;;;5004187;28;20481;-82
2021/05/14 00:22:51;;;;;;;1.50;1.00;;;13.00;98.20;;;;;;4995688;28;20478;-82
2021/05/14 00:25:17;;;;;;;1.50;1.00;;;12.90;98.20;;;;;;5012117;28;20534;-83
2021/05/14 00:27:44;;;;;;;1.50;1.10;;;12.90;98.20;;;;;;4993631;28;20512;-83
2021/05/14 00:30:12;;;;;;;1.50;1.10;;;12.90;98.20;;;;;;5007704;28;20488;-83
2021/05/14 00:32:39;;;;;;;1.50;1.00;;;12.90;98.20;;;;;;5011177;28;20495;-85
2021/05/14 00:35:08;;;;;;;1.50;1.07;;;12.80;98.20;;;;;;5010132;28;20892;-85
2021/05/14 00:37:35;;;;;;;1.50;1.10;;;12.80;98.20;;;;;;4999584;28;20480;-82
2021/05/14 00:40:04;;;;;;;1.50;1.03;;;12.80;98.20;;;;;;5009776;28;20476;-83
2021/05/14 00:42:31;;;;;;;1.50;1.00;;;12.80;98.20;;;;;;5001272;28;20484;-83
2021/05/14 00:44:57;;;;;;;1.50;1.10;;;12.80;98.20;;;;;;5016070;28;20461;-84
2021/05/14 00:47:25;;;;;;;1.50;1.00;;;12.80;98.20;;;;;;5011336;28;20515;-82
2021/05/14 00:49:51;;;;;;;1.50;1.00;;;12.70;98.20;;;;;;5005162;28;20493;-83
2021/05/14 00:52:19;;;;;;;1.50;1.10;;;12.70;98.20;;;;;;4998149;28;20883;-82
2021/05/14 00:54:47;;;;;;;1.50;1.10;;;12.80;98.20;;;;;;5008255;28;20573;-82
2021/05/14 00:57:16;;;;;;;1.50;1.10;;;12.70;98.20;;;;;;5015921;28;20510;-84
2021/05/14 00:59:43;;;;;;;1.50;1.10;;;12.70;98.20;;;;;;5017270;28;20460;-83
2021/05/14 01:02:10;;;;;;;1.50;1.10;;;12.70;98.20;;;;;;5015230;28;20495;-83
2021/05/14 01:04:38;;;;;;;1.50;1.10;;;12.70;98.20;;;;;;5015706;28;20461;-84
2021/05/14 01:07:05;;;;;;;1.50;1.07;;;12.70;98.20;;;;;;5000350;28;20484;-83
2021/05/14 01:09:32;;;;;;;1.50;1.00;;;12.70;98.20;;;;;;4999698;28;20562;-82
2021/05/14 01:11:58;;;;;;;1.50;1.00;;;12.60;98.20;;;;;;5004032;28;20553;-83
2021/05/14 01:14:24;;;;;;;1.50;1.10;;;12.60;98.20;;;;;;5019649;28;20465;-84
2021/05/14 01:16:51;;;;;;;1.50;1.00;;;12.60;98.20;;;;;;5005310;28;20508;-83
2021/05/14 01:19:17;;;;;;;1.50;1.00;;;12.50;98.20;;;;;;5018858;28;20675;-84
2021/05/14 01:21:45;;;;;;;1.50;1.10;;;12.50;98.20;;;;;;5009551;28;20491;-84
2021/05/14 01:24:12;;;;;;;1.50;1.10;;;12.50;98.20;;;;;;5016661;28;20492;-84
2021/05/14 01:26:38;;;;;;;1.50;1.10;;;12.40;98.20;;;;;;5000966;28;20496;-81
2021/05/14 01:29:07;;;;;;;1.50;1.10;;;12.40;98.20;;;;;;5009862;28;20477;-82
2021/05/14 01:31:33;;;;;;;1.50;1.10;;;12.40;98.20;;;;;;5000482;28;20488;-83
2021/05/14 01:34:00;;;;;;;1.50;1.00;;;12.30;98.20;;;;;;5000819;28;20472;-83
2021/05/14 01:36:39;;;;;;;1.50;1.10;;;12.30;98.20;;;;;;5008645;28;20484;-84
2021/05/14 01:42:12;;;;;;;1.50;1.10;;;12.20;98.20;;;;;;4995207;28;20491;-84
2021/05/14 01:44:38;;;;;;;1.50;1.10;;;12.20;98.20;;;;;;5009434;28;20452;-84
2021/05/14 01:47:05;;;;;;;1.50;1.00;;;12.20;98.20;;;;;;4998719;28;20477;-84
2021/05/14 01:49:31;;;;;;;1.50;1.10;;;12.20;98.20;;;;;;5011580;28;20504;-83
2021/05/14 01:51:57;;;;;;;1.50;1.10;;;12.20;98.20;;;;;;4990947;28;20516;-82
2021/05/14 01:54:24;;;;;;;1.50;1.10;;;12.10;98.20;;;;;;4992737;28;20484;-82
2021/05/14 01:56:52;;;;;;;1.50;1.00;;;12.10;98.20;;;;;;4988719;28;20533;-80
2021/05/14 01:59:18;;;;;;;1.50;1.00;;;12.10;98.20;;;;;;4991323;28;20515;-81
2021/05/14 02:01:44;;;;;;;1.50;1.10;;;12.10;98.20;;;;;;4988067;28;20999;-80
2021/05/14 02:04:11;;;;;;;1.50;1.00;;;12.10;98.20;;;;;;5000238;28;20464;-82
2021/05/14 02:06:37;;;;;;;1.50;1.10;;;12.00;98.20;;;;;;4984823;28;20492;-80
2021/05/14 02:09:04;;;;;;;1.50;1.10;;;12.00;98.20;;;;;;4993401;28;20491;-82
2021/05/14 02:11:32;;;;;;;1.53;1.20;;;12.00;98.20;;;;;;4981167;28;20493;-80
2021/05/14 02:13:58;;;;;;;1.50;1.10;;;12.00;98.20;;;;;;4996737;28;20466;-81
2021/05/14 02:16:24;;;;;;;1.50;1.00;;;11.90;98.20;;;;;;4982831;28;20704;-80
2021/05/14 02:18:51;;;;;;;1.50;1.07;;;11.90;98.20;;;;;;4995527;28;20461;-80
2021/05/14 02:21:17;;;;;;;1.50;1.10;;;11.80;98.20;;;;;;4988644;28;20892;-80
2021/05/14 02:23:43;;;;;;;1.50;1.10;;;11.80;98.20;;;;;;5001419;28;20943;-80
2021/05/14 02:26:10;;;;;;;1.50;1.10;;;11.80;98.20;;;;;;4990684;28;20639;-80
2021/05/14 02:28:37;;;;;;;1.50;1.00;;;11.80;98.20;;;;;;4999015;28;20485;-80
2021/05/14 02:31:04;;;;;;;1.50;1.03;;;11.80;98.20;;;;;;4987320;28;20515;-80
2021/05/14 02:33:31;;;;;;;1.50;1.07;;;11.80;98.20;;;;;;4989917;28;20464;-80
2021/05/14 02:35:57;;;;;;;1.50;1.10;;;11.80;98.20;;;;;;4985333;28;20468;-79
2021/05/14 02:38:24;;;;;;;1.50;1.10;;;11.70;98.20;;;;;;4990706;28;20844;-80
2021/05/14 02:40:50;;;;;;;1.50;1.20;;;11.70;98.20;;;;;;4983953;28;20485;-80
2021/05/14 02:43:17;;;;;;;1.50;1.00;;;11.70;98.20;;;;;;5008949;28;20476;-80
2021/05/14 02:45:44;;;;;;;1.53;1.10;;;11.70;98.20;;;;;;4994290;28;20837;-80
2021/05/14 02:48:10;;;;;;;1.50;1.10;;;11.70;98.20;;;;;;4983694;28;20480;-80
2021/05/14 02:50:37;;;;;;;1.50;1.10;;;11.60;98.20;;;;;;5013468;28;20586;-80
2021/05/14 02:53:04;;;;;;;1.50;1.10;;;11.60;98.20;;;;;;4997627;28;20528;-79
2021/05/14 02:55:30;;;;;;;1.50;1.10;;;11.60;98.20;;;;;;5008816;28;21023;-80
2021/05/14 02:57:56;;;;;;;1.50;1.20;;;11.60;98.20;;;;;;5001405;28;20555;-80
2021/05/14 03:00:24;;;;;;;1.50;1.10;;;11.60;98.20;;;;;;5011425;28;20487;-80
2021/05/14 03:02:51;;;;;;;1.50;1.10;;;11.50;98.20;;;;;;5000383;28;20480;-81
2021/05/14 03:05:17;;;;;;;1.53;1.10;;;11.50;98.20;;;;;;5011597;28;20472;-80
2021/05/14 03:07:44;;;;;;;1.60;1.20;;;11.50;98.20;;;;;;5006679;28;20865;-81
2021/05/14 03:10:12;;;;;;;1.53;1.10;;;11.50;98.20;;;;;;5013013;28;20480;-81
2021/05/14 03:12:38;;;;;;;1.60;1.20;;;11.50;98.20;;;;;;5005800;28;20494;-82
2021/05/14 03:15:07;;;;;;;1.50;1.10;;;11.50;98.20;;;;;;5012757;28;20513;-81
2021/05/14 03:17:33;;;;;;;1.50;1.10;;;11.40;98.20;;;;;;5005021;28;20484;-81
2021/05/14 03:20:01;;;;;;;1.50;1.10;;;11.40;98.20;;;;;;5016233;28;20534;-81
2021/05/14 03:22:27;;;;;;;1.50;1.10;;;11.40;98.20;;;;;;4999067;28;20480;-81
2021/05/14 03:24:53;;;;;;;1.50;1.10;;;11.40;98.20;;;;;;5010615;28;20879;-80
2021/05/14 03:27:20;;;;;;;1.50;1.03;;;11.40;98.20;;;;;;5010831;28;20487;-80
2021/05/14 03:29:46;;;;;;;1.50;1.10;;;11.40;98.20;;;;;;5014871;28;20506;-81
2021/05/14 03:32:12;;;;;;;1.50;1.10;;;11.30;98.20;;;;;;4998557;28;20536;-80
2021/05/14 03:34:39;;;;;;;1.50;1.10;;;11.30;98.20;;;;;;5011318;28;20833;-82
2021/05/14 03:37:06;;;;;;;2.23;2.03;;;11.40;98.20;;;;;;5005314;28;20494;-81
2021/05/14 03:39:38;;;;;;;1.50;1.03;;;11.30;98.20;;;;;;5019597;28;20846;-81
2021/05/14 03:42:12;;;;;;;1.50;1.00;;;11.30;98.20;;;;;;4999443;28;20559;-80
2021/05/14 03:44:38;;;;;;;1.50;1.10;;;11.30;98.20;;;;;;5010232;28;20515;-81
2021/05/14 03:47:05;;;;;;;1.50;1.10;;;11.30;98.20;;;;;;5001841;28;20480;-80
2021/05/14 03:49:35;;;;;;;1.50;1.10;;;11.30;98.20;;;;;;5010469;28;20910;-81
2021/05/14 03:52:03;;;;;;;1.50;1.10;;;11.30;98.20;;;;;;5139626;22;21064;-77
2021/05/14 03:54:30;;;;;;;1.50;1.00;;;11.30;98.20;;;;;;5000139;28;20468;-77
2021/05/14 03:56:56;;;;;;;1.53;1.10;;;11.30;98.20;;;;;;4990711;28;20493;-77
2021/05/14 03:59:23;;;;;;;1.50;1.10;;;11.20;98.20;;;;;;5005205;28;20456;-77
2021/05/14 04:01:49;;;;;;;1.50;1.00;;;11.20;98.20;;;;;;5000552;28;20534;-77
2021/05/14 04:04:15;;;;;;;1.50;1.20;;;11.20;98.20;;;;;;5006300;28;20877;-77
2021/05/14 04:06:41;;;;;;;1.50;1.10;;;11.20;98.20;;;;;;4999360;28;20863;-77
2021/05/14 04:09:08;;;;;;;1.53;1.13;;;11.30;98.20;;;;;;5011304;28;20853;-77
2021/05/14 04:12:05;;;;;;;1.50;1.20;;;11.30;98.20;;;;;;5001563;28;20525;-77
2021/05/14 04:14:32;;;;;;;1.50;1.20;;;11.30;98.20;;;;;;5007630;28;20506;-77
2021/05/14 04:16:59;;;;;;;1.50;1.10;;;11.30;98.20;;;;;;4988367;28;20484;-77
2021/05/14 04:19:26;;;;;;;1.50;1.10;;;11.30;98.20;;;;;;5004457;28;20492;-77
2021/05/14 04:21:53;;;;;;;1.57;1.10;;;11.30;98.20;;;;;;4997709;28;21011;-77
2021/05/14 04:24:21;;;;;;;1.50;1.10;;;11.30;98.20;;;;;;5012141;28;20472;-76
2021/05/14 04:26:49;;;;;;;1.50;1.20;;;11.30;98.20;;;;;;4997849;28;20542;-76
2021/05/14 04:29:16;;;;;;;1.50;1.10;;;11.30;98.20;;;;;;5010248;28;20467;-76
2021/05/14 04:31:43;;;;;;;1.50;1.20;;;11.30;98.20;;;;;;4998469;28;20496;-76
2021/05/14 04:34:10;;;;;;;1.57;1.10;;;11.30;98.20;;;;;;5010447;28;20468;-76
2021/05/14 04:36:37;;;;;;;1.50;1.10;;;11.30;98.20;;;;;;4998697;28;20488;-76
2021/05/14 04:39:04;;;;;;;1.50;1.10;;;11.30;98.20;;;;;;5008705;28;21029;-76
2021/05/14 04:41:30;;;;;;;1.50;1.10;;;11.30;98.20;;;;;;4996898;28;20541;-76
2021/05/14 04:43:57;;;;;;;1.57;1.10;;;11.40;98.20;;;;;;5009978;28;20478;-76
2021/05/14 04:46:23;;;;;;;1.50;1.10;;;11.40;98.20;;;;;;4997423;28;20794;-76
2021/05/14 04:48:50;;;;;;;1.50;1.10;;;11.50;98.20;;;;;;5009860;28;20468;-76
2021/05/14 04:51:16;;;;;;;1.50;1.10;;;11.50;98.20;;;;;;4995408;28;21310;-76
2021/05/14 04:53:43;;;;;;;1.53;1.20;;;11.50;98.20;;;;;;5006299;28;20554;-76
2021/05/14 04:56:10;;;;;;;1.53;1.20;;;11.50;98.20;;;;;;4997770;28;20488;-76
2021/05/14 04:58:36;;;;;;;1.50;1.10;;;11.50;98.20;;;;;;5005845;28;20498;-78
2021/05/14 05:01:04;;;;;;;1.50;1.00;;;11.50;98.20;;;;;;5002947;28;20873;-77
2021/05/14 05:03:30;;;;;;;1.50;1.10;;;11.60;98.20;;;;;;5010186;28;20460;-77
2021/05/14 05:05:57;;;;;;;1.50;1.00;;;11.60;98.20;;;;;;4999218;28;20575;-77
2021/05/14 05:08:23;;;;;;;1.50;1.10;;;11.70;98.20;;;;;;5009655;28;20473;-77
2021/05/14 05:10:49;;;;;;;1.50;1.07;;;11.60;98.20;;;;;;4998573;28;20514;-78
2021/05/14 05:13:16;;;;;;;1.50;1.10;;;11.70;98.20;;;;;;5010417;28;20506;-78
2021/05/14 05:15:42;;;;;;;1.50;1.10;;;11.70;98.20;;;;;;5011982;28;20522;-77
2021/05/14 05:18:09;;;;;;;1.50;1.10;;;11.80;98.20;;;;;;4997736;28;20886;-77
2021/05/14 05:20:36;;;;;;;1.50;1.07;;;11.80;98.20;;;;;;5010904;28;20514;-77
2021/05/14 05:23:02;;;;;;;1.50;1.00;;;11.80;98.20;;;;;;4997355;28;20484;-77
2021/05/14 05:25:29;;;;;;;1.50;1.00;;;11.80;98.20;;;;;;5009165;28;20460;-77
2021/05/14 05:27:55;;;;;;;1.50;1.00;;;11.80;98.20;;;;;;4998433;28;20515;-78
2021/05/14 05:30:23;;;;;;;1.50;1.10;;;11.90;98.20;;;;;;5012519;28;20456;-78
2021/05/14 05:32:50;;;;;;;1.50;1.00;;;11.90;98.20;;;;;;4998518;28;20487;-78
2021/05/14 05:35:18;;;;;;;1.50;1.10;;;12.00;98.20;;;;;;5012363;28;20511;-78
2021/05/14 05:37:44;;;;;;;1.50;1.00;;;12.10;98.20;;;;;;4957408;28;20667;-78
2021/05/14 05:40:11;;;;;;;1.50;1.10;;;12.20;98.20;;;;;;4988748;28;20522;-78
2021/05/14 05:42:37;;;;;;;1.50;1.10;;;12.20;98.20;;;;;;4961915;28;20857;-78
2021/05/14 05:45:05;;;;;;;1.50;1.00;;;12.40;98.20;;;;;;4990520;28;20538;-77
2021/05/14 05:47:32;;;;;;;1.50;1.10;;;12.40;98.20;;;;;;4981112;28;20516;-78
2021/05/14 05:49:59;;;;;;;1.50;1.00;;;12.40;98.20;;;;;;5004575;28;20512;-79
2021/05/14 05:52:26;;;;;;;1.50;1.00;;;12.50;98.20;;;;;;5005027;28;20656;-78
2021/05/14 05:54:52;;;;;;;1.50;1.10;;;12.50;98.20;;;;;;5015822;28;20471;-77
2021/05/14 05:57:18;;;;;;;1.50;1.00;;;12.60;98.20;;;;;;4988993;28;20982;-77
2021/05/14 05:59:44;;;;;;;1.50;1.00;;;12.70;98.20;;;;;;4980232;28;20676;-77
2021/05/14 06:02:11;;;;;;;1.50;1.00;;;12.70;97.50;;;;;;4964089;28;20490;-77
2021/05/14 06:04:38;;;;;;;1.53;1.00;;;12.80;97.30;;;;;;4986831;28;20466;-77
2021/05/14 06:07:04;;;;;;;1.50;1.00;;;12.90;96.80;;;;;;4988336;28;20990;-77
2021/05/14 06:09:31;;;;;;;1.50;1.17;;;12.90;97.10;;;;;;5000516;28;20962;-77
2021/05/14 06:11:57;;;;;;;1.53;1.10;;;13.00;96.50;;;;;;4978915;28;20514;-77
2021/05/14 06:14:24;;;;;;;1.50;1.03;;;13.10;96.90;;;;;;4985664;28;20471;-77
2021/05/14 06:16:50;;;;;;;1.50;1.00;;;13.20;97.10;;;;;;4978234;28;20480;-77
2021/05/14 06:19:20;;;;;;;1.50;1.00;;;13.40;96.60;;;;;;4989639;28;20489;-79
2021/05/14 06:21:47;;;;;;;1.53;1.07;;;13.50;95.70;;;;;;4984133;28;20484;-77
2021/05/14 06:24:15;;;;;;;1.50;1.00;;;13.70;96.30;;;;;;4986516;28;20872;-77
2021/05/14 06:26:42;;;;;;;1.53;1.00;;;13.90;94.90;;;;;;4979327;28;20495;-77
2021/05/14 06:29:08;;;;;;;1.57;1.00;;;14.20;94.20;;;;;;4995068;28;20465;-77
2021/05/14 06:31:35;;;;;;;1.50;1.00;;;14.40;93.50;;;;;;4995112;28;20488;-78
2021/05/14 06:34:01;;;;;;;1.50;1.00;;;14.50;93.50;;;;;;5004648;28;20469;-77
2021/05/14 06:36:27;;;;;;;1.60;1.00;;;14.70;93.80;;;;;;4986814;28;20476;-77
2021/05/14 06:38:54;;;;;;;1.50;1.00;;;15.00;92.30;;;;;;4996545;28;20780;-77
2021/05/14 06:41:20;;;;;;;1.50;1.00;;;15.10;90.60;;;;;;4988298;28;20523;-77
2021/05/14 06:43:47;;;;;;;1.53;1.00;;;15.20;90.80;;;;;;5004529;28;21078;-77
2021/05/14 06:46:13;;;;;;;1.50;1.00;;;15.20;90.30;;;;;;4986642;28;20492;-78
2021/05/14 06:48:41;;;;;;;1.50;1.00;;;15.30;89.90;;;;;;5003272;28;20461;-77
2021/05/14 06:51:08;;;;;;;1.50;0.97;;;15.10;89.00;;;;;;4988159;28;20854;-78
2021/05/14 06:53:58;;;;;;;1.50;0.93;;;15.10;89.30;;;;;;5002262;28;20705;-78
2021/05/14 06:57:19;;;;;;;;;;;;;;;;;;;;;
2021/05/14 07:03:04;;;;;;;1.50;1.10;;;15.30;89.30;;;;;;5057691;23;20500;-77
2021/05/14 07:05:30;;;;;;;1.50;1.00;;;15.40;88.80;;;;;;5012659;28;20551;-78
2021/05/14 07:07:57;;;;;;;1.50;1.00;;;15.50;88.90;;;;;;5008986;28;20488;-77
2021/05/14 07:10:25;;;;;;;1.50;1.00;;;15.60;88.70;;;;;;5008611;28;20835;-80
2021/05/14 07:12:52;;;;;;;1.50;0.97;;;15.70;89.00;;;;;;5014125;28;20501;-78
2021/05/14 07:15:24;;;;;;;1.50;1.00;;;15.90;88.40;;;;;;5010771;28;20471;-78
2021/05/14 07:17:58;;;;;;;1.50;1.00;;;15.90;87.30;;;;;;5015984;28;20498;-78
2021/05/14 07:20:24;;;;;;;1.50;0.90;;;16.10;88.40;;;;;;5006039;28;20479;-78
2021/05/14 07:22:54;;;;;;;1.50;1.00;;;16.40;87.50;;;;;;4993952;28;20948;-77
2021/05/14 07:25:23;;;;;;;1.50;1.00;;;16.70;86.60;;;;;;5007427;28;20878;-77
2021/05/14 07:27:51;;;;;;;1.50;1.00;;;17.00;85.70;;;;;;4993310;28;21203;-78
2021/05/14 07:30:19;;;;;;;1.50;1.00;;;17.30;85.20;;;;;;5009014;28;20975;-78
2021/05/14 07:32:48;;;;;;;1.50;1.00;;;17.30;85.10;;;;;;5016725;28;20612;-78
2021/05/14 07:35:14;;;;;;;1.50;0.90;;;17.50;84.10;;;;;;5006862;28;20961;-78
2021/05/14 07:37:41;;;;;;;1.50;0.90;;;17.70;83.90;;;;;;5013042;28;20561;-79
2021/05/14 07:40:09;;;;;;;1.50;0.93;;;17.80;83.90;;;;;;5011556;28;21017;-78
2021/05/14 07:42:35;;;;;;;1.53;1.00;;;17.90;83.20;;;;;;5000748;28;20890;-79
2021/05/14 07:45:06;;;;;;;1.50;0.93;;;18.10;83.00;;;;;;4992479;28;20496;-79
2021/05/14 07:47:35;;;;;;;1.53;1.00;;;18.10;82.90;;;;;;4999300;28;20494;-78
2021/05/14 07:50:03;;;;;;;1.50;0.90;;;18.20;82.10;;;;;;5004773;28;20951;-78
2021/05/14 07:52:51;;;;;;;1.50;1.00;;;18.30;81.80;;;;;;5010612;28;20530;-79
2021/05/14 07:55:18;;;;;;;1.50;0.90;;;18.40;81.70;;;;;;5012845;28;20468;-80
2021/05/14 07:57:49;;;;;;;1.50;0.90;;;18.40;81.80;;;;;;4988697;28;20481;-81
2021/05/14 08:00:24;;;;;;;1.50;0.90;;;18.20;82.10;;;;;;5012268;28;20514;-79
2021/05/14 08:02:51;;;;;;;1.50;0.90;;;18.20;81.80;;;;;;5016622;28;20523;-78
2021/05/14 08:05:46;;;;;;;1.50;0.90;;;18.30;82.40;;;;;;5012350;28;20506;-79
2021/05/14 08:08:14;;;;;;;1.50;1.00;;;18.40;82.00;;;;;;4980755;28;20498;-78
2021/05/14 08:10:45;;;;;;;1.50;0.93;;;18.50;82.20;;;;;;5010648;28;20542;-79
2021/05/14 08:13:12;;;;;;;1.50;0.90;;;18.70;82.40;;;;;;5016437;28;20874;-79
2021/05/14 08:15:39;;;;;;;1.50;0.90;;;18.90;81.20;;;;;;5032750;28;20485;-77
2021/05/14 08:18:06;;;;;;;1.50;0.90;;;19.00;80.90;;;;;;4995627;28;20488;-77
2021/05/14 08:20:39;;;;;;;1.50;0.90;;;19.30;81.20;;;;;;5005036;28;20457;-78
2021/05/14 08:23:09;;;;;;;1.50;0.90;;;19.60;80.10;;;;;;5012088;28;20485;-80
2021/05/14 08:25:44;;;;;;;1.50;0.90;;;19.70;79.30;;;;;;5001685;28;20465;-79
2021/05/14 08:28:12;;;;;;;1.50;0.90;;;19.90;79.20;;;;;;5017549;28;20486;-80
2021/05/14 08:30:39;;;;;;;1.57;1.00;;;20.10;79.10;;;;;;5031956;28;20487;-81
2021/05/14 08:33:09;;;;;;;1.90;1.67;;;20.30;77.50;;;;;;5018095;28;20580;-81
2021/05/14 08:35:37;;;;;;;1.53;1.00;;;20.40;78.30;;;;;;5031030;28;20617;-80
2021/05/14 08:38:06;;;;;;;1.50;0.90;;;20.60;78.10;;;;;;5035911;28;20501;-80
2021/05/14 08:40:33;;;;;;;1.50;0.83;;;20.90;75.30;;;;;;5030017;28;20459;-80
2021/05/14 08:43:05;;;;;;;1.50;0.90;;;21.20;75.60;;;;;;5022073;28;20586;-80
2021/05/14 08:45:34;;;;;;;1.50;0.90;;;21.40;76.20;;;;;;5029347;28;20505;-80
2021/05/14 08:48:01;;;;;;;1.50;0.93;;;21.50;75.10;;;;;;5033590;28;20488;-81
2021/05/14 08:50:33;;;;;;;1.50;0.90;;;21.70;74.40;;;;;;5036603;28;20479;-81
2021/05/14 08:52:59;;;;;;;1.50;0.90;;;21.60;73.20;;;;;;5024568;28;21013;-79
2021/05/14 08:55:26;;;;;;;1.50;1.00;;;21.40;72.60;;;;;;5035525;28;20464;-81
2021/05/14 08:57:59;;;;;;;1.50;0.90;;;21.40;72.60;;;;;;5022464;28;20605;-80
2021/05/14 09:01:02;;;;;;;1.50;0.90;;;21.30;73.80;;;;;;5037657;28;20459;-81
2021/05/14 09:04:16;;;;;;;1.50;0.90;;;21.40;73.40;;;;;;4977236;28;20495;-81
2021/05/14 09:07:02;;;;;;;1.50;0.90;;;21.40;71.30;;;;;;5006765;28;20490;-80
2021/05/14 09:09:28;;;;;;;1.50;0.83;;;21.50;73.70;;;;;;5012232;28;20876;-80
2021/05/14 09:12:00;;;;;;;1.50;0.90;;;21.70;72.20;;;;;;5008124;28;20570;-80
2021/05/14 09:14:36;;;;;;;1.50;0.90;;;21.80;71.40;;;;;;5012212;28;20877;-80
2021/05/14 09:17:07;;;;;;;1.47;0.87;;;21.90;68.60;;;;;;4996109;28;20518;-81
2021/05/14 09:19:34;;;;;;;1.50;0.90;;;22.00;69.10;;;;;;5006684;28;20499;-80
2021/05/14 09:22:12;;;;;;;1.50;1.00;;;22.10;68.80;;;;;;5007717;28;20513;-80
2021/05/14 09:24:48;;;;;;;1.50;0.90;;;22.20;69.80;;;;;;5011081;28;20900;-80
2021/05/14 09:27:31;;;;;;;1.50;0.90;;;22.40;67.60;;;;;;5013228;28;20487;-80
2021/05/14 09:29:59;;;;;;;1.50;0.90;;;22.50;68.20;;;;;;5012536;28;20855;-80
2021/05/14 09:32:27;;;;;;;1.50;0.90;;;22.60;67.30;;;;;;5013758;28;20850;-81
2021/05/14 09:34:55;;;;;;;1.50;0.90;;;22.60;67.30;;;;;;5030563;28;20838;-80
2021/05/14 09:37:30;;;;;;;1.50;0.90;;;22.50;67.60;;;;;;5022493;28;20486;-80
2021/05/14 09:40:13;;;;;;;1.47;0.90;;;22.50;68.90;;;;;;5031036;28;20482;-80
2021/05/14 09:42:49;;;;;;;1.50;0.90;;;22.50;67.80;;;;;;5024299;28;20772;-81
2021/05/14 09:45:17;;;;;;;1.40;0.80;;;22.40;68.00;;;;;;5030571;28;20829;-81
2021/05/14 09:47:44;;;;;;;1.50;0.90;;;22.20;68.40;;;;;;5022499;28;20902;-80
2021/05/14 09:50:37;;;;;;;1.50;0.90;;;22.20;69.20;;;;;;5033189;28;20972;-80
2021/05/14 09:53:14;;;;;;;1.50;0.90;;;22.00;68.90;;;;;;5022997;28;20479;-79
2021/05/14 09:55:45;;;;;;;1.50;0.90;;;21.90;69.30;;;;;;5031006;28;20463;-78
2021/05/14 09:58:20;;;;;;;1.50;0.90;;;21.80;69.00;;;;;;5007170;28;20491;-78
2021/05/14 10:00:56;;;;;;;1.47;0.90;;;21.50;69.50;;;;;;5014356;28;20624;-79
2021/05/14 10:03:31;;;;;;;1.50;0.90;;;21.40;70.00;;;;;;5042380;28;20460;-82
2021/05/14 10:06:20;;;;;;;1.47;0.90;;;21.30;69.90;;;;;;5006183;28;20480;-81
2021/05/14 10:08:54;;;;;;;1.47;0.90;;;21.30;69.80;;;;;;5034804;28;20484;-81
2021/05/14 10:11:24;;;;;;;1.50;0.90;;;21.20;70.30;;;;;;5012248;28;20520;-80
2021/05/14 10:14:04;;;;;;;1.47;0.90;;;21.20;70.30;;;;;;5037076;28;20476;-80
2021/05/14 10:16:48;;;;;;;1.50;0.90;;;21.10;69.90;;;;;;5012182;28;20540;-81
2021/05/14 10:19:15;;;;;;;1.50;0.90;;;21.10;70.00;;;;;;5019626;28;20468;-80
2021/05/14 10:21:47;;;;;;;1.50;0.90;;;20.90;69.70;;;;;;5009367;28;20522;-80
2021/05/14 10:24:37;;;;;;;1.50;0.90;;;20.80;70.60;;;;;;5016379;28;20537;-80
2021/05/14 10:27:16;;;;;;;1.50;0.90;;;20.70;70.10;;;;;;5010547;28;20747;-81
2021/05/14 10:29:46;;;;;;;1.50;0.90;;;20.60;69.90;;;;;;5011354;28;20553;-79
2021/05/14 10:32:16;;;;;;;1.50;1.00;;;20.50;71.20;;;;;;5015995;28;20486;-79
2021/05/14 10:34:42;;;;;;;1.50;0.90;;;20.50;71.40;;;;;;5036405;28;20533;-79
2021/05/14 10:37:35;;;;;;;1.50;0.90;;;20.40;71.60;;;;;;5024681;28;20485;-80
2021/05/14 10:40:03;;;;;;;1.50;1.00;;;20.40;71.60;;;;;;5039170;28;20462;-80
2021/05/14 10:42:42;;;;;;;1.50;0.90;;;20.50;71.30;;;;;;5026698;28;20855;-80
2021/05/14 10:45:33;;;;;;;1.50;0.90;;;20.90;70.80;;;;;;5039475;28;20473;-81
2021/05/14 10:48:17;;;;;;;1.50;0.90;;;21.50;69.80;;;;;;5036217;28;20617;-80
2021/05/14 10:50:50;;;;;;;1.50;0.90;;;22.00;69.00;;;;;;5039468;28;20548;-81
2021/05/14 10:53:46;;;;;;;1.50;0.90;;;22.30;69.00;;;;;;5022658;28;20562;-81
2021/05/14 10:56:56;;;;;;;1.50;0.90;;;22.70;68.40;;;;;;5024706;28;20507;-80
2021/05/14 10:59:42;;;;;;;1.50;0.90;;;22.90;68.70;;;;;;5032126;28;20460;-81
2021/05/14 11:02:28;;;;;;;1.47;0.90;;;23.20;69.60;;;;;;5026696;28;20485;-81
2021/05/14 11:04:57;;;;;;;1.50;0.83;;;23.50;65.80;;;;;;5033243;28;20495;-80
2021/05/14 11:07:41;;;;;;;1.50;0.90;;;23.80;67.10;;;;;;5035213;28;20504;-80
2021/05/14 11:10:31;;;;;;;1.50;0.90;;;24.00;64.10;;;;;;5034128;28;20501;-80
2021/05/14 11:12:58;;;;;;;1.47;0.90;;;24.00;66.10;;;;;;5029312;28;20988;-80
2021/05/14 11:15:33;;;;;;;1.47;0.90;;;24.10;64.50;;;;;;5030507;28;20479;-81
2021/05/14 11:18:25;;;;;;;1.50;0.90;;;24.00;62.90;;;;;;5020112;28;20564;-81
2021/05/14 11:20:53;;;;;;;1.50;0.90;;;23.90;63.90;;;;;;5024441;28;20532;-81
2021/05/14 11:23:37;;;;;;;1.50;0.87;;;23.90;64.60;;;;;;5028549;28;20688;-81
2021/05/14 11:26:18;;;;;;;1.50;0.80;;;23.80;63.30;;;;;;5023491;28;20827;-81
2021/05/14 11:28:47;;;;;;;1.43;0.80;;;23.50;64.90;;;;;;5038962;28;20482;-81
2021/05/14 11:31:21;;;;;;;1.50;0.90;;;23.30;63.60;;;;;;5023164;28;20490;-81
2021/05/14 11:33:51;;;;;;;1.50;0.90;;;22.90;64.30;;;;;;5048004;28;20493;-81
2021/05/14 11:36:21;;;;;;;1.50;0.80;;;22.70;65.10;;;;;;5024429;28;20496;-80
2021/05/14 11:38:56;;;;;;;1.50;0.90;;;22.50;65.50;;;;;;5038710;28;20969;-82
2021/05/14 11:41:33;;;;;;;1.50;0.87;;;22.10;68.20;;;;;;5022882;28;20514;-80
2021/05/14 11:44:02;;;;;;;1.47;0.90;;;21.60;70.30;;;;;;5028662;28;20462;-79
2021/05/14 11:46:32;;;;;;;1.50;0.93;;;21.10;72.10;;;;;;5023675;28;20917;-80
2021/05/14 11:49:10;;;;;;;1.50;0.90;;;20.70;73.10;;;;;;5030459;28;20478;-82
2021/05/14 11:51:40;;;;;;;1.50;0.90;;;20.10;74.70;;;;;;5023006;28;20548;-81
2021/05/14 11:54:11;;;;;;;1.50;0.90;;;19.70;77.60;;;;;;5039584;28;20932;-80
2021/05/14 11:56:37;;;;;;;1.50;0.90;;;19.30;78.80;;;;;;5029840;28;20488;-81
2021/05/14 11:59:06;;;;;;;1.50;1.07;;;18.90;80.60;;;;;;5030340;28;20481;-81
2021/05/14 12:01:42;;;;;;;1.50;1.00;;;18.50;82.70;;;;;;5016822;28;20494;-77
2021/05/14 12:04:10;;;;;;;1.50;1.00;;;18.10;83.30;;;;;;5036285;28;20470;-78
2021/05/14 12:06:47;;;;;;;1.50;1.00;;;17.80;84.60;;;;;;5032215;28;20957;-80
2021/05/14 12:09:17;;;;;;;1.50;1.00;;;17.60;83.90;;;;;;5037746;28;20550;-79
2021/05/14 12:11:45;;;;;;;1.50;1.00;;;17.30;84.60;;;;;;5028315;28;20573;-79
2021/05/14 12:14:21;;;;;;;1.50;0.90;;;17.10;85.00;;;;;;5033499;28;20458;-79
2021/05/14 12:16:54;;;;;;;1.50;0.90;;;17.00;85.60;;;;;;5028441;28;20517;-79
2021/05/14 12:19:29;;;;;;;1.50;0.90;;;16.80;85.80;;;;;;5029482;28;20459;-78
2021/05/14 12:22:09;;;;;;;1.50;0.90;;;16.60;87.00;;;;;;5017193;28;20759;-79
2021/05/14 12:24:40;;;;;;;1.50;1.00;;;16.50;85.80;;;;;;5021020;28;20826;-79
2021/05/14 12:27:10;;;;;;;1.50;0.90;;;16.40;87.20;;;;;;5033036;28;20481;-80
2021/05/14 12:29:38;;;;;;;1.50;1.00;;;16.30;86.80;;;;;;5037034;28;20493;-80
2021/05/14 12:32:06;;;;;;;1.50;1.00;;;16.30;87.90;;;;;;5021095;28;20483;-79
2021/05/14 12:34:33;;;;;;;1.50;1.00;;;16.40;88.60;;;;;;5032153;28;20463;-79
2021/05/14 12:37:03;;;;;;;1.50;1.00;;;16.50;88.40;;;;;;5020250;28;20509;-79
2021/05/14 12:39:31;;;;;;;1.50;0.93;;;16.70;88.80;;;;;;5035737;28;20455;-77
2021/05/14 12:42:03;;;;;;;1.50;1.00;;;16.90;88.50;;;;;;5005550;28;20838;-79
2021/05/14 12:44:37;;;;;;;1.50;0.90;;;17.20;88.40;;;;;;5005015;28;20638;-78
2021/05/14 12:47:18;;;;;;;1.50;0.90;;;17.40;87.80;;;;;;5004715;28;20480;-78
2021/05/14 12:49:55;;;;;;;1.50;1.00;;;17.70;86.50;;;;;;5007527;28;21183;-77
2021/05/14 12:52:23;;;;;;;1.50;0.90;;;18.00;85.30;;;;;;5008493;28;20486;-78
2021/05/14 12:55:08;;;;;;;1.50;0.90;;;18.30;84.50;;;;;;5010578;28;20474;-78
2021/05/14 12:58:18;;;;;;;1.50;0.90;;;18.60;82.80;;;;;;5008248;28;20570;-79
2021/05/14 13:01:05;;;;;;;1.50;0.90;;;18.80;84.10;;;;;;5026564;28;20466;-80
2021/05/14 13:07:18;;;;;;;1.50;0.90;;;20.10;81.60;;;;;;4976304;28;20590;-80
2021/05/14 13:09:50;;;;;;;1.50;0.90;;;20.50;79.20;;;;;;5028843;28;20813;-80
2021/05/14 13:12:36;;;;;;;1.50;0.90;;;20.80;77.50;;;;;;5032399;28;20803;-80
2021/05/14 13:15:02;;;;;;;1.50;0.90;;;20.90;73.50;;;;;;5030318;28;20471;-79